Time;durP1;ratioP1;P1;durP2;ratioP2;P2;SDS_P1;SDS_P2;PMS_P1;PMS_P2;Temp;Humidity;BMP_temperature;BMP_pressure;BME280_temperature;BME280_humidity;BME280_pressure;Samples;Min_cycle;Max_cycle;Signal;HPM_P1;HPM_P2
2023/07/16 00:00:57;;;;;;;4.32;2.03;;;22.10;98.40;;;;;;5046244;28;20204;-32
2023/07/16 00:03:24;;;;;;;3.83;2.05;;;22.00;98.40;;;;;;5046072;28;20204;-32
2023/07/16 00:05:54;;;;;;;6.30;2.17;;;22.00;98.40;;;;;;5045110;28;20200;-32
2023/07/16 00:08:25;;;;;;;5.55;2.20;;;22.00;98.30;;;;;;5046126;28;20208;-32
2023/07/16 00:11:03;;;;;;;7.95;2.35;;;21.90;98.30;;;;;;5044298;28;20534;-32
2023/07/16 00:13:30;;;;;;;5.18;2.10;;;21.90;98.50;;;;;;5048507;28;20697;-29
2023/07/16 00:15:57;;;;;;;5.38;2.10;;;21.80;98.30;;;;;;5046408;28;20732;-29
2023/07/16 00:18:29;;;;;;;4.88;2.20;;;21.80;98.30;;;;;;5046654;28;20256;-29
2023/07/16 00:21:04;;;;;;;5.82;2.10;;;21.70;98.30;;;;;;5047116;28;20192;-29
2023/07/16 00:23:31;;;;;;;6.27;2.40;;;21.70;98.30;;;;;;5045024;28;20906;-29
2023/07/16 00:25:58;;;;;;;4.93;2.08;;;21.90;98.70;;;;;;5045701;28;20210;-29
2023/07/16 00:28:29;;;;;;;3.97;2.20;;;21.80;98.50;;;;;;5045916;28;20216;-29
2023/07/16 00:30:56;;;;;;;5.57;2.17;;;21.80;98.40;;;;;;5044617;28;20479;-32
2023/07/16 00:33:26;;;;;;;5.30;2.13;;;22.00;98.70;;;;;;5047418;28;20581;-32
2023/07/16 00:35:53;;;;;;;4.00;1.85;;;21.90;98.60;;;;;;5045068;28;20729;-32
2023/07/16 00:38:20;;;;;;;7.25;2.30;;;21.80;98.50;;;;;;5047230;28;20232;-32
2023/07/16 00:40:49;;;;;;;4.88;2.40;;;21.70;98.40;;;;;;5046859;28;20743;-32
2023/07/16 00:43:17;;;;;;;6.75;2.20;;;21.70;98.40;;;;;;5047046;28;20192;-33
2023/07/16 00:45:48;;;;;;;5.18;2.10;;;21.60;98.40;;;;;;5045232;28;20859;-32
2023/07/16 00:48:21;;;;;;;5.68;2.22;;;21.60;98.40;;;;;;5045469;28;20296;-32
2023/07/16 00:50:56;;;;;;;4.53;2.10;;;21.50;98.30;;;;;;5044517;28;20204;-32
2023/07/16 00:53:24;;;;;;;5.25;1.92;;;21.50;98.40;;;;;;5045601;28;20693;-32
2023/07/16 00:55:54;;;;;;;5.95;2.00;;;21.40;98.40;;;;;;5045668;28;20643;-32
2023/07/16 00:58:26;;;;;;;8.50;2.45;;;21.40;98.30;;;;;;5044809;28;20281;-32
2023/07/16 01:00:55;;;;;;;8.25;2.10;;;21.30;98.30;;;;;;5046421;28;20849;-32
2023/07/16 01:03:25;;;;;;;4.03;1.92;;;21.30;98.20;;;;;;5031324;28;20224;-32
2023/07/16 01:06:07;;;;;;;7.65;1.98;;;21.30;98.30;;;;;;5040371;28;20196;-32
2023/07/16 01:09:01;;;;;;;5.10;1.90;;;21.20;98.50;;;;;;5047121;28;20220;-32
2023/07/16 01:11:32;;;;;;;5.20;2.10;;;21.20;98.60;;;;;;5046712;28;20277;-32
2023/07/16 01:14:05;;;;;;;7.93;2.28;;;21.10;98.20;;;;;;5047065;28;20207;-32
2023/07/16 01:16:32;;;;;;;6.47;2.03;;;21.00;98.10;;;;;;5032306;28;20205;-32
2023/07/16 01:18:59;;;;;;;5.18;2.13;;;21.00;98.10;;;;;;5045207;28;20247;-32
2023/07/16 01:21:53;;;;;;;6.70;2.30;;;21.00;98.10;;;;;;5044733;28;20492;-29
2023/07/16 01:24:32;;;;;;;6.22;2.13;;;21.20;98.30;;;;;;5045268;28;20433;-29
2023/07/16 01:27:27;;;;;;;5.03;2.25;;;21.00;98.20;;;;;;5045353;28;20212;-29
2023/07/16 01:30:01;;;;;;;6.85;2.45;;;21.00;98.40;;;;;;5045817;28;20655;-29
2023/07/16 01:32:33;;;;;;;6.13;2.08;;;20.90;98.00;;;;;;5043899;28;20199;-29
2023/07/16 01:35:07;;;;;;;4.60;2.10;;;20.80;97.90;;;;;;5044028;28;20215;-29
2023/07/16 01:37:36;;;;;;;5.85;2.30;;;20.80;97.90;;;;;;5046436;28;20270;-29
2023/07/16 01:40:09;;;;;;;5.07;1.92;;;20.70;97.80;;;;;;5045237;28;20208;-29
2023/07/16 01:42:41;;;;;;;7.53;2.60;;;20.60;98.00;;;;;;5046750;28;20212;-29
2023/07/16 01:45:09;;;;;;;5.20;2.30;;;20.60;97.60;;;;;;5044804;28;20254;-29
2023/07/16 01:48:10;;;;;;;5.93;2.75;;;20.50;97.60;;;;;;5046446;28;20200;-32
2023/07/16 01:50:40;;;;;;;5.95;2.47;;;20.50;97.80;;;;;;5044080;28;20194;-32
2023/07/16 01:53:12;;;;;;;6.88;2.45;;;20.40;97.50;;;;;;5045189;28;20621;-32
2023/07/16 01:55:40;;;;;;;6.68;2.40;;;20.40;97.50;;;;;;5046591;28;20199;-32
2023/07/16 01:58:10;;;;;;;6.82;2.65;;;20.30;97.40;;;;;;5046593;28;20227;-32
2023/07/16 02:00:41;;;;;;;7.15;2.45;;;20.30;97.40;;;;;;5041945;28;20250;-32
2023/07/16 02:03:10;;;;;;;7.72;2.60;;;20.20;97.40;;;;;;5045663;28;20212;-32
2023/07/16 02:05:38;;;;;;;7.20;2.55;;;20.20;97.40;;;;;;5045889;28;20196;-33
2023/07/16 02:08:05;;;;;;;6.73;2.70;;;20.20;97.70;;;;;;5045837;28;20419;-32
2023/07/16 02:10:32;;;;;;;9.20;2.88;;;20.30;97.60;;;;;;5045909;28;20445;-32
2023/07/16 02:13:01;;;;;;;7.07;2.60;;;20.30;97.40;;;;;;5044827;28;20270;-32
2023/07/16 02:15:29;;;;;;;5.97;2.67;;;20.20;97.40;;;;;;5049357;28;20553;-32
2023/07/16 02:17:57;;;;;;;7.40;2.40;;;20.20;97.50;;;;;;5050066;28;20230;-32
2023/07/16 02:20:31;;;;;;;8.68;2.60;;;20.10;97.40;;;;;;5049497;28;20677;-32
2023/07/16 02:22:58;;;;;;;8.55;2.53;;;20.00;97.40;;;;;;5050431;28;20208;-32
2023/07/16 02:25:28;;;;;;;9.40;2.53;;;20.00;97.30;;;;;;5048905;28;20228;-32
2023/07/16 02:27:57;;;;;;;7.63;2.75;;;19.90;97.20;;;;;;5050286;28;20216;-32
2023/07/16 02:30:27;;;;;;;6.78;2.90;;;19.90;97.20;;;;;;5048811;28;20685;-32
2023/07/16 02:32:56;;;;;;;4.95;2.75;;;19.80;97.20;;;;;;5049253;28;20306;-32
2023/07/16 02:35:26;;;;;;;9.07;3.22;;;19.80;97.10;;;;;;5049216;28;20200;-29
2023/07/16 02:37:56;;;;;;;8.27;2.80;;;19.80;97.00;;;;;;5049846;28;20322;-30
2023/07/16 02:40:25;;;;;;;5.38;3.05;;;19.70;96.90;;;;;;5048388;28;20204;-29
2023/07/16 02:42:55;;;;;;;6.88;3.03;;;19.60;96.80;;;;;;5048385;28;20204;-29
2023/07/16 02:45:24;;;;;;;6.05;3.10;;;19.60;96.80;;;;;;5048332;28;20549;-29
2023/07/16 02:47:51;;;;;;;7.75;3.60;;;19.50;96.70;;;;;;5049796;28;20200;-29
2023/07/16 02:50:18;;;;;;;9.50;3.42;;;19.50;96.60;;;;;;5047267;28;20211;-29
2023/07/16 02:52:48;;;;;;;8.85;3.53;;;19.50;96.40;;;;;;5048346;28;20196;-32
2023/07/16 02:55:15;;;;;;;7.55;3.40;;;19.40;96.30;;;;;;5047251;28;20230;-32
2023/07/16 02:57:47;;;;;;;5.32;3.45;;;19.40;96.30;;;;;;5048226;28;20287;-32
2023/07/16 03:00:15;;;;;;;6.68;3.53;;;19.30;96.30;;;;;;5049455;28;20259;-32
2023/07/16 03:02:44;;;;;;;7.25;3.70;;;19.30;96.20;;;;;;5047959;28;20212;-32
2023/07/16 03:05:16;;;;;;;9.13;3.85;;;19.20;96.30;;;;;;5048874;28;20199;-32
2023/07/16 03:07:45;;;;;;;9.30;4.18;;;19.20;96.30;;;;;;5048084;28;20200;-32
2023/07/16 03:10:12;;;;;;;10.93;4.43;;;19.20;96.30;;;;;;5048331;28;20678;-31
2023/07/16 03:12:44;;;;;;;11.18;4.15;;;19.20;96.30;;;;;;5048573;28;20219;-32
2023/07/16 03:15:18;;;;;;;11.98;4.55;;;19.10;96.20;;;;;;5049005;28;20855;-32
2023/07/16 03:17:48;;;;;;;7.35;3.83;;;19.10;96.30;;;;;;5049499;28;20273;-32
2023/07/16 03:20:16;;;;;;;7.78;3.83;;;19.00;96.30;;;;;;5048349;28;20224;-32
2023/07/16 03:22:45;;;;;;;8.25;3.83;;;19.00;96.20;;;;;;5047865;28;20856;-31
2023/07/16 03:25:15;;;;;;;7.63;3.60;;;19.00;96.20;;;;;;5048692;28;20555;-32
2023/07/16 03:27:42;;;;;;;9.18;3.90;;;19.00;96.20;;;;;;5045811;28;20778;-32
2023/07/16 03:30:14;;;;;;;9.27;4.27;;;19.20;96.50;;;;;;5047416;28;20404;-32
2023/07/16 03:32:41;;;;;;;11.30;4.25;;;19.40;96.50;;;;;;5049026;28;20204;-32
2023/07/16 03:35:21;;;;;;;8.70;3.50;;;19.30;96.30;;;;;;5046862;28;20236;-29
2023/07/16 03:37:59;;;;;;;7.65;3.72;;;19.20;96.30;;;;;;5047457;28;20240;-29
2023/07/16 03:40:30;;;;;;;6.97;3.65;;;19.10;96.20;;;;;;5048642;28;20200;-29
2023/07/16 03:42:57;;;;;;;12.68;3.92;;;19.10;96.20;;;;;;5047482;28;20719;-29
2023/07/16 03:45:25;;;;;;;8.07;3.75;;;19.00;96.20;;;;;;5046366;28;20200;-29
2023/07/16 03:47:54;;;;;;;8.70;3.40;;;19.00;96.20;;;;;;5043418;28;20658;-29
2023/07/16 03:50:24;;;;;;;7.88;3.50;;;19.00;96.20;;;;;;5046280;28;20204;-29
2023/07/16 03:52:53;;;;;;;9.23;4.00;;;18.90;96.20;;;;;;5048372;28;20324;-29
2023/07/16 03:55:23;;;;;;;8.05;3.80;;;18.90;96.20;;;;;;5048013;28;20219;-29
2023/07/16 03:57:52;;;;;;;10.57;4.45;;;18.90;96.20;;;;;;5047127;28;20862;-29
2023/07/16 04:00:27;;;;;;;9.13;3.53;;;19.10;96.30;;;;;;5046103;28;20235;-29
2023/07/16 04:02:56;;;;;;;7.00;3.65;;;19.00;96.10;;;;;;5047974;28;20290;-29
2023/07/16 04:05:26;;;;;;;8.02;3.88;;;19.00;96.10;;;;;;5045375;28;20208;-29
2023/07/16 04:07:59;;;;;;;9.05;3.95;;;18.90;96.00;;;;;;5046542;28;20212;-29
2023/07/16 04:10:26;;;;;;;9.50;4.13;;;18.90;96.00;;;;;;5046197;28;20196;-29
2023/07/16 04:12:53;;;;;;;10.93;3.88;;;18.90;96.10;;;;;;5048001;28;20207;-29
2023/07/16 04:15:23;;;;;;;8.15;4.13;;;18.80;96.00;;;;;;5045974;28;20201;-28
2023/07/16 04:17:50;;;;;;;10.60;4.28;;;18.80;96.00;;;;;;5046472;28;20631;-29
2023/07/16 04:20:17;;;;;;;9.35;4.20;;;18.80;95.90;;;;;;5046757;28;20236;-29
2023/07/16 04:22:44;;;;;;;8.63;4.07;;;18.70;95.90;;;;;;5045927;28;20227;-28
2023/07/16 04:25:12;;;;;;;8.80;4.57;;;18.70;96.00;;;;;;5047219;28;20200;-29
2023/07/16 04:27:41;;;;;;;7.35;4.15;;;18.70;96.00;;;;;;5047189;28;20200;-29
2023/07/16 04:30:13;;;;;;;5.63;3.88;;;18.70;95.90;;;;;;5045659;28;20212;-29
2023/07/16 04:32:43;;;;;;;9.38;4.40;;;18.70;96.00;;;;;;5047208;28;20582;-29
2023/07/16 04:35:10;;;;;;;7.20;3.90;;;18.70;95.90;;;;;;5046767;28;20346;-29
2023/07/16 04:37:38;;;;;;;9.93;4.50;;;18.70;95.90;;;;;;5045246;28;20251;-28
2023/07/16 04:40:06;;;;;;;7.80;4.40;;;18.70;95.90;;;;;;5045345;28;20232;-28
2023/07/16 04:42:33;;;;;;;9.73;4.60;;;18.70;95.90;;;;;;5042291;28;20679;-28
2023/07/16 04:45:06;;;;;;;6.97;4.25;;;18.70;95.90;;;;;;5047577;28;20216;-29
2023/07/16 04:47:34;;;;;;;12.00;4.82;;;18.70;96.00;;;;;;5046178;28;20234;-29
2023/07/16 04:50:04;;;;;;;8.85;4.30;;;18.70;95.90;;;;;;5045516;28;20251;-28
2023/07/16 04:52:31;;;;;;;8.55;5.00;;;18.70;95.90;;;;;;5048110;28;20259;-29
2023/07/16 04:55:01;;;;;;;12.85;5.00;;;18.70;95.90;;;;;;5047408;28;20210;-28
2023/07/16 04:57:30;;;;;;;10.95;4.70;;;18.70;95.90;;;;;;5045604;28;20239;-28
2023/07/16 05:00:00;;;;;;;9.13;4.82;;;18.70;95.90;;;;;;5044992;28;20232;-28
2023/07/16 05:02:28;;;;;;;9.90;4.65;;;18.70;96.00;;;;;;5038727;28;20255;-28
2023/07/16 05:04:55;;;;;;;9.73;5.13;;;18.70;96.00;;;;;;5030607;28;20201;-28
2023/07/16 05:07:22;;;;;;;13.23;5.38;;;18.70;96.00;;;;;;5033920;28;20699;-28
2023/07/16 05:09:52;;;;;;;8.38;4.47;;;18.80;96.00;;;;;;5024926;28;20205;-28
2023/07/16 05:12:19;;;;;;;10.88;5.22;;;18.80;96.00;;;;;;5027188;28;20209;-28
2023/07/16 05:14:48;;;;;;;7.28;5.00;;;18.80;96.00;;;;;;5039168;28;20220;-28
2023/07/16 05:17:18;;;;;;;10.35;5.90;;;18.90;96.10;;;;;;5037052;28;20719;-28
2023/07/16 05:19:45;;;;;;;9.10;4.80;;;18.90;96.00;;;;;;5042135;28;20659;-28
2023/07/16 05:22:15;;;;;;;15.15;6.00;;;18.90;96.00;;;;;;5025108;28;20215;-28
2023/07/16 05:24:42;;;;;;;10.18;5.45;;;19.00;96.10;;;;;;5025129;28;20201;-28
2023/07/16 05:27:11;;;;;;;8.35;5.50;;;19.00;96.10;;;;;;5025720;28;20216;-28
2023/07/16 05:29:38;;;;;;;7.50;5.25;;;19.00;96.10;;;;;;5026450;28;20228;-28
2023/07/16 05:32:13;;;;;;;10.23;5.57;;;19.10;96.20;;;;;;5026834;28;20271;-29
2023/07/16 05:34:42;;;;;;;8.95;5.72;;;19.10;96.30;;;;;;5023171;28;20200;-28
2023/07/16 05:37:12;;;;;;;8.98;5.00;;;19.10;96.20;;;;;;5026957;28;20204;-29
2023/07/16 05:39:39;;;;;;;8.93;5.15;;;19.20;96.30;;;;;;5025955;28;20729;-28
2023/07/16 05:42:07;;;;;;;9.80;5.40;;;19.20;96.30;;;;;;5022210;28;20641;-28
2023/07/16 05:44:35;;;;;;;10.55;5.97;;;19.30;96.30;;;;;;5024356;28;20649;-28
2023/07/16 05:47:03;;;;;;;8.52;5.43;;;19.30;96.30;;;;;;5016502;28;20207;-28
2023/07/16 05:49:30;;;;;;;16.13;6.15;;;19.30;96.30;;;;;;5028999;28;20662;-28
2023/07/16 05:51:57;;;;;;;9.63;5.93;;;19.30;96.30;;;;;;5037998;28;20715;-28
2023/07/16 05:54:27;;;;;;;12.15;6.38;;;19.40;96.30;;;;;;5046364;28;20398;-28
2023/07/16 05:56:54;;;;;;;12.15;5.78;;;19.40;96.30;;;;;;5041161;28;20208;-28
2023/07/16 05:59:21;;;;;;;10.65;6.10;;;19.40;96.30;;;;;;5026495;28;20225;-28
2023/07/16 06:01:51;;;;;;;10.77;6.18;;;19.40;96.30;;;;;;5044316;28;20200;-28
2023/07/16 06:04:22;;;;;;;9.63;6.43;;;19.40;96.40;;;;;;5042172;28;20212;-31
2023/07/16 06:06:51;;;;;;;13.30;6.30;;;19.40;96.40;;;;;;5041403;28;20266;-31
2023/07/16 06:09:21;;;;;;;12.05;6.28;;;19.40;96.40;;;;;;5043999;28;20294;-31
2023/07/16 06:11:48;;;;;;;12.43;6.22;;;19.50;96.40;;;;;;5052631;28;20196;-28
2023/07/16 06:14:16;;;;;;;10.75;6.13;;;19.50;96.40;;;;;;5039765;28;20224;-28
2023/07/16 06:16:43;;;;;;;10.95;6.55;;;19.50;96.40;;;;;;5042818;28;20243;-28
2023/07/16 06:19:15;;;;;;;10.65;5.85;;;19.50;96.50;;;;;;5046991;28;20725;-31
2023/07/16 06:21:45;;;;;;;11.18;6.28;;;19.60;96.50;;;;;;5028578;28;20343;-32
2023/07/16 06:24:14;;;;;;;11.77;6.88;;;19.60;96.50;;;;;;5026221;28;20192;-32
2023/07/16 06:26:47;;;;;;;11.95;6.32;;;19.60;96.60;;;;;;5044717;28;20207;-32
2023/07/16 06:29:14;;;;;;;11.32;6.35;;;19.60;96.50;;;;;;5044491;28;20305;-32
2023/07/16 06:31:57;;;;;;;11.27;6.70;;;19.60;96.60;;;;;;5038252;28;20223;-32
2023/07/16 06:34:27;;;;;;;11.45;7.15;;;19.70;96.50;;;;;;5043331;28;20212;-32
2023/07/16 06:36:54;;;;;;;12.63;6.93;;;19.70;96.40;;;;;;5035855;28;20203;-32
2023/07/16 06:39:21;;;;;;;11.50;6.88;;;19.70;96.50;;;;;;5036865;28;20249;-33
2023/07/16 06:41:49;;;;;;;11.43;6.55;;;19.70;96.40;;;;;;5043142;28;20200;-31
2023/07/16 06:44:18;;;;;;;12.68;7.18;;;19.70;96.50;;;;;;5040733;28;20200;-35
2023/07/16 06:46:45;;;;;;;9.75;6.15;;;19.70;96.50;;;;;;5029795;28;20694;-31
2023/07/16 06:49:15;;;;;;;11.82;6.70;;;19.80;96.50;;;;;;5035585;28;20248;-31
2023/07/16 06:51:42;;;;;;;10.55;6.45;;;19.80;96.60;;;;;;5038255;28;20208;-31
2023/07/16 06:54:09;;;;;;;15.13;7.22;;;19.90;96.60;;;;;;5044129;28;20205;-31
2023/07/16 06:56:42;;;;;;;9.70;6.97;;;19.90;96.70;;;;;;5042249;28;20216;-32
2023/07/16 06:59:11;;;;;;;12.80;6.95;;;20.00;96.70;;;;;;5031915;28;20213;-31
2023/07/16 07:01:41;;;;;;;11.52;6.93;;;20.00;96.70;;;;;;5044884;28;20196;-31
2023/07/16 07:04:11;;;;;;;13.50;6.85;;;20.10;96.70;;;;;;5034265;28;20743;-31
2023/07/16 07:06:38;;;;;;;11.52;6.78;;;20.10;96.80;;;;;;5034254;28;20185;-31
2023/07/16 07:09:05;;;;;;;13.65;6.70;;;20.10;96.60;;;;;;5027221;28;20211;-31
2023/07/16 07:11:34;;;;;;;10.32;6.43;;;20.10;96.50;;;;;;5043251;28;20236;-31
2023/07/16 07:14:03;;;;;;;9.88;6.57;;;20.10;96.50;;;;;;5047566;28;20223;-31
2023/07/16 07:16:30;;;;;;;10.43;6.70;;;20.10;96.60;;;;;;5031144;28;20196;-31
2023/07/16 07:18:58;;;;;;;13.85;7.28;;;20.20;96.70;;;;;;5046925;28;20205;-31
2023/07/16 07:21:27;;;;;;;8.93;6.20;;;20.20;96.70;;;;;;5038896;28;20217;-31
2023/07/16 07:23:55;;;;;;;11.55;6.85;;;20.30;96.70;;;;;;5041393;28;20213;-32
2023/07/16 07:26:22;;;;;;;;;;;20.20;96.70;;;;;;5040561;28;20445;-32
2023/07/16 07:28:49;;;;;;;;;;;20.30;96.80;;;;;;5037914;28;19979;-32
2023/07/16 07:31:18;;;;;;;11.98;6.53;;;20.30;96.80;;;;;;5045306;28;20225;-31
2023/07/16 07:33:50;;;;;;;12.30;6.85;;;20.30;96.70;;;;;;5026161;28;20490;-31
2023/07/16 07:36:17;;;;;;;10.45;6.68;;;20.60;96.90;;;;;;5030012;28;20205;-31
2023/07/16 07:38:45;;;;;;;10.88;6.72;;;20.60;96.80;;;;;;5038086;28;20236;-31
2023/07/16 07:41:19;;;;;;;11.18;6.30;;;20.60;96.80;;;;;;5046369;28;20740;-31
2023/07/16 07:43:47;;;;;;;11.38;6.35;;;20.70;96.90;;;;;;5039729;28;20247;-31
2023/07/16 07:46:18;;;;;;;12.75;6.80;;;20.70;96.90;;;;;;5034857;28;20201;-31
2023/07/16 07:48:46;;;;;;;11.95;6.78;;;20.70;96.90;;;;;;5042274;28;20203;-31
2023/07/16 07:51:15;;;;;;;11.65;6.63;;;20.80;96.90;;;;;;5036813;28;20585;-31
2023/07/16 07:53:45;;;;;;;12.02;6.80;;;20.80;96.90;;;;;;5034905;28;20974;-32
2023/07/16 07:56:12;;;;;;;10.23;6.47;;;20.80;96.90;;;;;;5037837;28;20207;-31
2023/07/16 07:58:40;;;;;;;12.70;7.05;;;20.80;96.90;;;;;;5030545;28;20220;-31
2023/07/16 08:01:10;;;;;;;11.93;6.28;;;20.80;96.90;;;;;;5033929;28;20232;-31
2023/07/16 08:03:40;;;;;;;12.23;6.68;;;20.90;96.90;;;;;;5032230;28;20216;-31
2023/07/16 08:06:07;;;;;;;21.75;7.47;;;20.90;97.10;;;;;;5033444;28;20208;-31
2023/07/16 08:08:39;;;;;;;13.35;7.13;;;21.00;97.00;;;;;;5035999;28;20219;-32
2023/07/16 08:11:08;;;;;;;8.32;5.70;;;21.00;97.00;;;;;;5030313;28;20575;-28
2023/07/16 08:13:38;;;;;;;10.73;6.60;;;21.10;97.20;;;;;;5033307;28;20233;-31
2023/07/16 08:16:05;;;;;;;10.82;6.18;;;21.10;97.20;;;;;;5027062;28;20217;-32
2023/07/16 08:18:35;;;;;;;10.75;6.20;;;21.20;97.20;;;;;;5026798;28;20227;-32
2023/07/16 08:21:04;;;;;;;10.00;5.93;;;21.30;97.30;;;;;;5027545;28;20549;-31
2023/07/16 08:23:35;;;;;;;14.90;6.85;;;21.30;97.30;;;;;;5027546;28;20884;-32
2023/07/16 08:26:02;;;;;;;10.88;6.22;;;21.40;97.10;;;;;;5028630;28;20770;-31
2023/07/16 08:28:31;;;;;;;10.13;5.82;;;21.40;97.20;;;;;;5043895;28;20219;-31
2023/07/16 08:30:59;;;;;;;13.75;6.45;;;21.40;97.10;;;;;;5037823;28;20209;-31
2023/07/16 08:33:28;;;;;;;10.90;6.57;;;21.50;97.10;;;;;;5034160;28;20759;-31
2023/07/16 08:35:55;;;;;;;11.88;6.55;;;21.50;97.10;;;;;;5033877;28;20221;-32
2023/07/16 08:38:28;;;;;;;10.35;5.82;;;21.50;97.10;;;;;;5034517;28;20244;-31
2023/07/16 08:40:55;;;;;;;9.35;6.00;;;21.50;96.90;;;;;;5035478;28;20235;-31
2023/07/16 08:43:22;;;;;;;10.40;5.88;;;21.50;97.00;;;;;;5045663;28;20737;-31
2023/07/16 08:45:50;;;;;;;9.50;6.30;;;21.50;97.00;;;;;;5025888;28;20213;-32
2023/07/16 08:48:23;;;;;;;12.23;5.80;;;21.60;97.00;;;;;;5025251;28;20197;-31
2023/07/16 08:50:52;;;;;;;8.73;5.22;;;21.60;97.00;;;;;;5026386;28;20217;-32
2023/07/16 08:53:20;;;;;;;8.77;5.45;;;21.60;97.00;;;;;;5032632;28;20223;-31
2023/07/16 08:55:48;;;;;;;9.18;5.47;;;21.70;97.00;;;;;;5027939;28;20211;-31
2023/07/16 08:58:25;;;;;;;11.48;6.07;;;21.70;97.00;;;;;;5041399;28;20209;-31
2023/07/16 09:00:56;;;;;;;11.43;5.55;;;21.80;96.90;;;;;;5026975;28;20738;-31
2023/07/16 09:03:23;;;;;;;8.82;5.60;;;21.70;96.90;;;;;;5025714;28;20599;-31
2023/07/16 09:05:50;;;;;;;10.25;5.05;;;21.80;97.00;;;;;;5037600;28;20278;-31
2023/07/16 09:08:28;;;;;;;9.80;5.25;;;21.80;97.00;;;;;;5028777;28;20217;-31
2023/07/16 09:10:58;;;;;;;10.25;5.75;;;21.90;97.10;;;;;;5033608;28;20200;-31
2023/07/16 09:13:27;;;;;;;10.90;4.85;;;21.90;97.10;;;;;;5028960;28;20201;-31
2023/07/16 09:16:01;;;;;;;9.57;5.22;;;22.00;97.00;;;;;;5027745;28;20209;-31
2023/07/16 09:18:28;;;;;;;8.27;5.18;;;22.10;97.10;;;;;;5030597;28;20196;-32
2023/07/16 09:21:02;;;;;;;10.15;4.90;;;22.20;97.20;;;;;;5036116;28;20232;-32
2023/07/16 09:23:32;;;;;;;9.13;5.00;;;22.30;97.20;;;;;;5025231;28;20304;-31
2023/07/16 09:26:03;;;;;;;7.35;4.45;;;22.40;97.30;;;;;;5030210;28;20204;-35
2023/07/16 09:28:31;;;;;;;8.10;4.80;;;22.50;97.30;;;;;;5031877;28;20565;-32
2023/07/16 09:31:07;;;;;;;10.80;5.45;;;22.50;97.10;;;;;;5034103;28;20242;-32
2023/07/16 09:33:37;;;;;;;8.75;4.82;;;22.60;97.00;;;;;;5032604;28;20223;-31
2023/07/16 09:36:04;;;;;;;9.63;5.05;;;22.60;97.20;;;;;;5033510;28;20239;-32
2023/07/16 09:38:33;;;;;;;9.77;4.95;;;22.70;97.30;;;;;;5029092;28;20242;-31
2023/07/16 09:41:03;;;;;;;8.25;4.97;;;22.70;97.40;;;;;;5041918;28;20228;-32
2023/07/16 09:43:32;;;;;;;8.20;4.85;;;22.80;97.30;;;;;;5035241;28;20208;-32
2023/07/16 09:46:00;;;;;;;9.68;5.47;;;22.80;97.30;;;;;;5039380;28;20211;-32
2023/07/16 09:48:30;;;;;;;8.60;4.97;;;22.90;97.30;;;;;;5039472;28;20208;-32
2023/07/16 09:51:00;;;;;;;7.35;5.03;;;22.90;97.20;;;;;;5029562;28;20262;-31
2023/07/16 09:53:37;;;;;;;6.88;5.03;;;23.00;97.20;;;;;;5031532;28;20266;-31
2023/07/16 09:56:06;;;;;;;9.77;5.30;;;23.00;97.30;;;;;;5026730;28;20582;-31
2023/07/16 09:58:34;;;;;;;7.63;4.90;;;23.10;97.30;;;;;;5038309;28;20208;-32
2023/07/16 10:01:05;;;;;;;9.85;5.38;;;23.10;97.30;;;;;;5027113;28;20229;-31
2023/07/16 10:03:35;;;;;;;8.25;5.43;;;23.10;97.20;;;;;;5034801;28;20201;-32
2023/07/16 10:06:08;;;;;;;9.43;5.38;;;23.20;97.30;;;;;;5027622;28;20209;-32
2023/07/16 10:08:40;;;;;;;7.07;4.40;;;23.20;97.20;;;;;;5024311;28;20204;-31
2023/07/16 10:11:17;;;;;;;9.85;5.28;;;23.20;97.10;;;;;;5044486;28;20215;-31
2023/07/16 10:13:50;;;;;;;7.15;4.72;;;23.30;97.10;;;;;;5043576;28;20709;-31
2023/07/16 10:16:27;;;;;;;9.40;5.40;;;23.30;97.10;;;;;;5027622;28;20622;-31
2023/07/16 10:19:00;;;;;;;8.32;5.57;;;23.30;97.10;;;;;;5024306;28;20714;-31
2023/07/16 10:21:28;;;;;;;7.75;5.35;;;23.40;97.10;;;;;;5025865;28;20224;-31
2023/07/16 10:24:03;;;;;;;10.07;5.43;;;23.40;97.10;;;;;;5024399;28;20244;-32
2023/07/16 10:26:30;;;;;;;13.15;4.70;;;23.50;97.20;;;;;;5038243;28;20281;-32
2023/07/16 10:28:57;;;;;;;9.48;4.80;;;23.50;97.10;;;;;;5032577;28;20232;-27
2023/07/16 10:31:25;;;;;;;9.10;5.28;;;23.60;97.10;;;;;;5025285;28;20216;-25
2023/07/16 10:34:04;;;;;;;9.25;5.22;;;23.60;97.10;;;;;;5028777;28;21016;-26
2023/07/16 10:36:41;;;;;;;6.53;4.60;;;23.70;96.80;;;;;;5040693;28;20712;-27
2023/07/16 10:39:08;;;;;;;9.52;5.43;;;23.70;97.10;;;;;;5049229;28;20313;-26
2023/07/16 10:41:36;;;;;;;11.25;5.40;;;23.70;97.10;;;;;;5039050;28;20232;-26
2023/07/16 10:44:03;;;;;;;7.68;4.68;;;23.80;96.90;;;;;;5044707;28;20733;-27
2023/07/16 10:46:33;;;;;;;9.85;5.30;;;23.80;97.00;;;;;;5040298;28;20746;-26
2023/07/16 10:49:01;;;;;;;8.23;5.03;;;23.80;96.70;;;;;;5028787;28;20251;-26
2023/07/16 10:51:31;;;;;;;10.07;4.75;;;23.80;96.60;;;;;;5026396;28;20201;-28
2023/07/16 10:53:59;;;;;;;8.38;4.53;;;23.70;96.50;;;;;;5033126;28;20208;-27
2023/07/16 10:56:29;;;;;;;10.60;4.93;;;23.70;96.40;;;;;;5029539;28;20221;-28
2023/07/16 10:58:58;;;;;;;9.80;4.70;;;23.60;96.30;;;;;;5029864;28;20255;-27
2023/07/16 11:01:29;;;;;;;6.65;4.22;;;23.60;96.40;;;;;;5029220;28;20224;-26
2023/07/16 11:04:06;;;;;;;7.40;4.70;;;23.50;96.10;;;;;;5033716;28;20287;-27
2023/07/16 11:06:35;;;;;;;11.63;4.70;;;23.50;96.30;;;;;;5027275;28;20204;-28
2023/07/16 11:09:14;;;;;;;8.07;4.22;;;23.50;96.20;;;;;;5028956;28;20258;-26
2023/07/16 11:11:43;;;;;;;11.82;5.05;;;23.40;96.10;;;;;;5029602;28;20205;-27
2023/07/16 11:14:18;;;;;;;7.45;4.63;;;23.40;96.20;;;;;;5035379;28;20228;-27
2023/07/16 11:16:48;;;;;;;10.80;4.80;;;23.30;96.20;;;;;;5044262;28;20219;-27
2023/07/16 11:19:20;;;;;;;5.38;4.05;;;23.40;96.30;;;;;;5043871;28;20196;-27
2023/07/16 11:21:49;;;;;;;10.13;4.20;;;23.40;96.30;;;;;;5028906;28;20244;-27
2023/07/16 11:24:21;;;;;;;6.53;4.28;;;23.40;96.40;;;;;;5047736;28;20402;-27
2023/07/16 11:26:52;;;;;;;7.50;4.50;;;23.50;96.60;;;;;;5033787;28;20695;-27
2023/07/16 11:29:27;;;;;;;7.00;4.32;;;23.60;96.60;;;;;;5028728;28;20192;-27
2023/07/16 11:31:57;;;;;;;10.32;4.40;;;23.70;96.60;;;;;;5028488;28;20677;-27
2023/07/16 11:34:26;;;;;;;7.80;4.50;;;23.70;96.70;;;;;;5025621;28;20212;-27
2023/07/16 11:37:12;;;;;;;8.23;4.40;;;23.80;96.60;;;;;;5037314;28;20204;-27
2023/07/16 11:39:39;;;;;;;7.68;3.78;;;23.80;96.40;;;;;;5031091;28;20244;-27
2023/07/16 11:42:07;;;;;;;6.78;3.58;;;23.80;96.40;;;;;;5027297;28;20229;-27
2023/07/16 11:44:35;;;;;;;5.93;3.63;;;23.80;96.40;;;;;;5027682;28;20197;-27
2023/07/16 11:47:03;;;;;;;6.75;3.92;;;23.90;96.50;;;;;;5038456;28;20204;-27
2023/07/16 11:49:33;;;;;;;7.55;4.38;;;23.90;96.40;;;;;;5045444;28;20219;-27
2023/07/16 11:52:05;;;;;;;7.95;4.25;;;24.00;96.50;;;;;;5031639;28;20417;-27
2023/07/16 11:54:32;;;;;;;6.40;4.20;;;24.20;96.30;;;;;;5033723;28;20212;-27
2023/07/16 11:57:02;;;;;;;7.90;4.30;;;24.30;96.30;;;;;;5027979;28;20216;-27
2023/07/16 11:59:29;;;;;;;8.13;4.22;;;24.30;96.50;;;;;;5039077;28;20204;-28
2023/07/16 12:01:57;;;;;;;8.13;4.68;;;24.40;96.60;;;;;;5026586;28;20220;-27
2023/07/16 12:04:24;;;;;;;7.97;4.10;;;24.40;96.60;;;;;;5032838;28;20200;-27
2023/07/16 12:06:58;;;;;;;7.65;4.18;;;24.50;96.70;;;;;;5046605;28;20219;-27
2023/07/16 12:09:26;;;;;;;7.60;4.07;;;24.50;96.40;;;;;;5036686;28;20215;-26
2023/07/16 12:11:56;;;;;;;5.53;4.00;;;24.60;96.50;;;;;;5036900;28;20204;-26
2023/07/16 12:14:24;;;;;;;7.63;4.72;;;24.60;96.40;;;;;;5038601;28;20308;-26
2023/07/16 12:16:51;;;;;;;6.75;4.10;;;24.60;96.40;;;;;;5041933;28;20220;-27
2023/07/16 12:19:18;;;;;;;7.75;3.97;;;24.60;96.40;;;;;;5014240;28;20200;-26
2023/07/16 12:21:51;;;;;;;7.40;4.45;;;24.60;96.30;;;;;;5030981;28;20233;-26
2023/07/16 12:24:25;;;;;;;8.40;4.38;;;24.60;96.40;;;;;;5029042;28;20242;-26
2023/07/16 12:26:57;;;;;;;8.85;4.28;;;24.60;96.50;;;;;;5026184;28;20208;-27
2023/07/16 12:29:27;;;;;;;6.50;4.07;;;24.70;96.50;;;;;;5027336;28;20292;-26
2023/07/16 12:31:57;;;;;;;5.47;3.90;;;24.70;96.60;;;;;;5026296;28;20201;-26
2023/07/16 12:34:27;;;;;;;8.38;4.30;;;24.70;96.60;;;;;;5027008;28;20213;-26
2023/07/16 12:36:56;;;;;;;7.68;4.45;;;24.80;96.60;;;;;;5028030;28;20220;-30
2023/07/16 12:39:23;;;;;;;6.35;3.88;;;24.80;96.70;;;;;;5025832;28;20667;-31
2023/07/16 12:41:53;;;;;;;7.22;4.20;;;24.80;96.50;;;;;;5026639;28;20205;-31
2023/07/16 12:44:22;;;;;;;7.38;3.78;;;24.80;96.50;;;;;;5036298;28;20221;-31
2023/07/16 12:46:52;;;;;;;6.95;4.07;;;24.90;96.40;;;;;;5038881;28;20211;-31
2023/07/16 12:49:22;;;;;;;5.90;3.95;;;24.90;96.20;;;;;;5037097;28;20574;-30
2023/07/16 12:51:49;;;;;;;5.63;3.60;;;25.00;96.30;;;;;;5034403;28;20291;-31
2023/07/16 12:54:21;;;;;;;5.68;3.75;;;25.00;96.40;;;;;;5042700;28;20642;-31
2023/07/16 12:56:49;;;;;;;6.85;3.40;;;25.00;96.00;;;;;;5040900;28;20725;-30